createdAt,value
2022-12-06T00:01:29.159Z,5.60
2022-12-06T00:03:59.415Z,5.73
2022-12-06T00:06:30.365Z,6.27
2022-12-06T00:08:59.333Z,5.40
2022-12-06T00:11:29.186Z,6.60
2022-12-06T00:13:59.271Z,6.37
2022-12-06T00:16:29.472Z,6.30
2022-12-06T00:18:58.457Z,6.37
2022-12-06T00:21:29.118Z,7.13
2022-12-06T00:23:59.343Z,7.43
2022-12-06T00:26:27.868Z,7.10
2022-12-06T00:28:57.376Z,7.13
2022-12-06T00:31:26.827Z,5.37
2022-12-06T00:33:56.529Z,6.80
2022-12-06T00:36:29.448Z,10.60
2022-12-06T00:38:59.799Z,11.73
2022-12-06T00:41:28.426Z,9.80
2022-12-06T00:43:56.521Z,10.33
2022-12-06T00:46:27.368Z,9.03
2022-12-06T00:48:57.994Z,8.40
2022-12-06T00:51:27.475Z,10.60
2022-12-06T00:53:55.433Z,8.60
2022-12-06T00:56:24.047Z,9.43
2022-12-06T00:58:52.609Z,10.47
2022-12-06T01:01:22.822Z,13.50
2022-12-06T01:03:53.897Z,10.30
2022-12-06T01:06:26.059Z,10.30
2022-12-06T01:08:55.098Z,10.70
2022-12-06T01:11:24.054Z,15.13
2022-12-06T01:13:52.958Z,10.93
2022-12-06T01:16:23.503Z,10.33
2022-12-06T01:18:54.804Z,10.27
2022-12-06T01:21:25.745Z,9.10
2022-12-06T01:23:54.281Z,9.53
2022-12-06T01:26:24.098Z,8.53
2022-12-06T01:28:52.432Z,9.27
2022-12-06T01:31:20.771Z,8.80
2022-12-06T01:33:48.853Z,9.00
2022-12-06T01:36:18.422Z,9.07
2022-12-06T01:38:50.466Z,8.47
2022-12-06T01:41:18.982Z,13.77
2022-12-06T01:43:47.553Z,9.93
2022-12-06T01:46:27.270Z,8.87
2022-12-06T01:48:59.937Z,9.30
2022-12-06T01:51:28.305Z,10.10
2022-12-06T01:53:59.216Z,13.83
2022-12-06T01:56:27.574Z,9.00
2022-12-06T01:58:57.683Z,10.23
2022-12-06T02:01:28.087Z,11.27
2022-12-06T02:03:57.730Z,15.73
2022-12-06T02:06:25.837Z,12.33
2022-12-06T02:08:55.840Z,9.93
2022-12-06T02:11:29.436Z,12.00
2022-12-06T02:14:00.771Z,13.00
2022-12-06T02:16:54.171Z,9.77
2022-12-06T02:19:46.415Z,12.40
2022-12-06T02:22:23.115Z,9.00
2022-12-06T02:25:00.037Z,11.13
2022-12-06T02:27:44.583Z,9.83
2022-12-06T02:30:18.604Z,10.63
2022-12-06T02:32:58.441Z,9.67
2022-12-06T02:35:32.471Z,13.80
2022-12-06T02:38:12.659Z,9.80
2022-12-06T02:40:43.821Z,11.10
2022-12-06T02:43:14.715Z,10.03
2022-12-06T02:45:46.397Z,9.40
2022-12-06T02:48:18.355Z,8.60
2022-12-06T02:50:51.722Z,9.33
2022-12-06T02:53:22.317Z,9.37
2022-12-06T02:55:52.182Z,8.30
2022-12-06T02:58:20.152Z,8.40
2022-12-06T03:00:51.093Z,8.97
2022-12-06T03:03:54.304Z,8.50
2022-12-06T03:06:46.797Z,7.10
2022-12-06T03:09:25.999Z,8.13
2022-12-06T03:12:00.803Z,7.80
2022-12-06T03:14:35.179Z,6.97
2022-12-06T03:17:14.052Z,7.23
2022-12-06T03:19:44.743Z,7.20
2022-12-06T03:22:17.437Z,7.77
2022-12-06T03:24:46.220Z,7.23
2022-12-06T03:27:18.492Z,6.87
2022-12-06T03:29:51.972Z,6.87
2022-12-06T03:32:24.419Z,7.30
2022-12-06T03:34:56.888Z,7.00
2022-12-06T03:37:28.398Z,7.17
2022-12-06T03:40:03.427Z,8.87
2022-12-06T03:42:32.893Z,7.20
2022-12-06T03:45:01.439Z,7.40
2022-12-06T03:47:34.743Z,6.20
2022-12-06T03:50:09.702Z,6.90
2022-12-06T03:52:39.399Z,7.07
2022-12-06T03:55:08.497Z,6.20
2022-12-06T03:57:36.728Z,7.13
2022-12-06T04:00:05.971Z,5.70
2022-12-06T04:02:33.935Z,5.10
2022-12-06T04:05:02.213Z,5.33
2022-12-06T04:07:32.007Z,4.73
2022-12-06T04:10:03.857Z,5.40
2022-12-06T04:12:50.925Z,6.20
2022-12-06T04:15:19.606Z,5.83
2022-12-06T04:18:04.989Z,6.13
2022-12-06T04:20:54.109Z,6.33
2022-12-06T04:23:22.591Z,5.73
2022-12-06T04:25:50.576Z,6.03
2022-12-06T04:28:36.208Z,5.77
2022-12-06T04:31:22.745Z,6.00
2022-12-06T04:34:08.817Z,5.80
2022-12-06T04:36:54.470Z,5.77
2022-12-06T04:39:24.103Z,6.47
2022-12-06T04:42:10.245Z,5.60
2022-12-06T04:44:38.379Z,6.63
2022-12-06T04:47:07.751Z,5.97
2022-12-06T04:49:36.795Z,7.40
2022-12-06T04:52:05.784Z,7.40
2022-12-06T04:54:35.362Z,7.10
2022-12-06T04:57:03.721Z,6.63
2022-12-06T04:59:32.603Z,7.60
2022-12-06T05:02:00.514Z,6.87
2022-12-06T05:04:28.858Z,9.87
2022-12-06T05:06:56.921Z,6.53
2022-12-06T05:09:24.953Z,5.63
2022-12-06T05:11:55.236Z,6.67
2022-12-06T05:14:23.280Z,6.80
2022-12-06T05:16:51.362Z,6.40
2022-12-06T05:19:19.398Z,6.67
2022-12-06T05:21:47.931Z,6.20
2022-12-06T05:24:16.153Z,6.60
2022-12-06T05:26:44.125Z,5.80
2022-12-06T05:29:15.728Z,6.37
2022-12-06T05:31:43.767Z,6.37
2022-12-06T05:34:12.004Z,5.47
2022-12-06T05:36:40.799Z,5.77
2022-12-06T05:39:09.142Z,6.20
2022-12-06T05:41:37.410Z,5.90
2022-12-06T05:44:05.713Z,6.00
2022-12-06T05:46:35.067Z,7.83
2022-12-06T05:49:03.052Z,5.33
2022-12-06T05:51:31.112Z,5.33
2022-12-06T05:54:02.854Z,6.23
2022-12-06T05:56:30.853Z,6.17
2022-12-06T05:58:58.811Z,6.07
2022-12-06T06:01:26.762Z,4.77
2022-12-06T06:03:56.371Z,4.90
2022-12-06T06:06:24.772Z,6.47
2022-12-06T06:08:52.754Z,7.03
2022-12-06T06:11:20.732Z,6.60
2022-12-06T06:13:49.062Z,6.00
2022-12-06T06:16:17.068Z,5.83
2022-12-06T06:18:45.058Z,5.50
2022-12-06T06:21:14.699Z,5.67
2022-12-06T06:23:42.999Z,7.77
2022-12-06T06:26:12.565Z,5.57
2022-12-06T06:28:40.691Z,6.13
2022-12-06T06:31:09.164Z,5.67
2022-12-06T06:33:37.227Z,5.73
2022-12-06T06:36:05.942Z,6.30
2022-12-06T06:38:35.326Z,5.73
2022-12-06T06:41:03.578Z,5.40
2022-12-06T06:43:32.110Z,6.80
2022-12-06T06:46:01.706Z,6.13
2022-12-06T06:48:32.251Z,7.57
2022-12-06T06:51:04.290Z,6.47
2022-12-06T06:53:32.354Z,6.73
2022-12-06T06:56:02.732Z,6.37
2022-12-06T06:58:30.751Z,5.67
2022-12-06T07:01:01.518Z,6.90
2022-12-06T07:03:30.389Z,7.03
2022-12-06T07:05:59.742Z,5.90
2022-12-06T07:08:28.803Z,6.27
2022-12-06T07:10:57.069Z,6.30
2022-12-06T07:13:29.187Z,6.90
2022-12-06T07:15:58.363Z,5.97
2022-12-06T07:18:26.920Z,6.27
2022-12-06T07:21:01.106Z,5.83
2022-12-06T07:23:29.066Z,5.93
2022-12-06T07:26:05.319Z,6.07
2022-12-06T07:28:36.445Z,7.20
2022-12-06T07:31:09.996Z,7.03
2022-12-06T07:33:38.638Z,5.97
2022-12-06T07:36:12.536Z,5.20
2022-12-06T07:38:42.035Z,5.87
2022-12-06T07:41:25.973Z,5.63
2022-12-06T07:44:13.797Z,5.70
2022-12-06T07:46:41.892Z,13.67
2022-12-06T07:49:10.405Z,6.50
2022-12-06T07:51:40.243Z,5.83
2022-12-06T07:54:08.643Z,10.00
2022-12-06T07:56:36.660Z,5.93
2022-12-06T07:59:06.328Z,6.27
2022-12-06T08:01:34.626Z,7.17
2022-12-06T08:04:02.804Z,7.03
2022-12-06T08:06:32.371Z,6.97
2022-12-06T08:09:00.448Z,7.17
2022-12-06T08:11:28.945Z,6.17
2022-12-06T08:13:57.156Z,6.73
2022-12-06T08:16:26.580Z,5.83
2022-12-06T08:18:54.952Z,6.13
2022-12-06T08:21:23.120Z,6.83
2022-12-06T08:23:51.094Z,6.50
2022-12-06T08:26:19.576Z,6.60
2022-12-06T08:28:47.643Z,6.60
2022-12-06T08:31:18.020Z,7.00
2022-12-06T08:33:47.761Z,10.60
2022-12-06T08:36:18.878Z,6.43
2022-12-06T08:38:47.533Z,6.70
2022-12-06T08:41:33.301Z,6.57
2022-12-06T08:44:02.946Z,9.10
2022-12-06T08:46:32.350Z,6.53
2022-12-06T08:49:02.668Z,7.17
2022-12-06T08:51:31.475Z,6.07
2022-12-06T08:53:59.499Z,7.00
2022-12-06T08:56:28.934Z,8.77
2022-12-06T08:58:57.709Z,6.40
2022-12-06T09:01:31.317Z,7.07
2022-12-06T09:04:07.351Z,7.67
2022-12-06T09:06:37.394Z,7.57
2022-12-06T09:09:05.381Z,8.17
2022-12-06T09:11:34.253Z,8.13
2022-12-06T09:14:02.323Z,8.20
2022-12-06T09:16:30.369Z,6.67
2022-12-06T09:18:59.255Z,6.57
2022-12-06T09:21:30.458Z,7.63
2022-12-06T09:23:59.354Z,5.73
2022-12-06T09:26:28.877Z,6.80
2022-12-06T09:28:57.682Z,8.40
2022-12-06T09:31:26.649Z,6.87
2022-12-06T09:33:54.985Z,6.40
2022-12-06T09:36:24.834Z,6.60
2022-12-06T09:38:58.410Z,6.00
2022-12-06T09:42:06.247Z,5.77
2022-12-06T09:44:50.047Z,6.07
2022-12-06T09:47:27.066Z,6.53
2022-12-06T09:50:08.664Z,5.83
2022-12-06T09:53:02.190Z,6.07
2022-12-06T09:55:45.134Z,5.70
2022-12-06T09:58:25.435Z,8.27
2022-12-06T10:01:00.725Z,5.37
2022-12-06T10:03:49.601Z,6.07
2022-12-06T10:06:20.126Z,5.43
2022-12-06T10:09:08.045Z,8.90
2022-12-06T10:11:51.758Z,5.93
2022-12-06T10:14:34.184Z,5.50
2022-12-06T10:17:11.357Z,6.20
2022-12-06T10:19:51.681Z,5.50
2022-12-06T10:22:32.396Z,5.50
2022-12-06T10:25:08.869Z,7.30
2022-12-06T10:27:40.722Z,5.53
2022-12-06T10:30:13.124Z,5.70
2022-12-06T10:32:52.275Z,6.33
2022-12-06T10:35:31.439Z,8.40
2022-12-06T10:38:07.397Z,5.57
2022-12-06T10:40:46.295Z,5.47
2022-12-06T10:43:19.364Z,5.80
2022-12-06T10:46:12.112Z,5.13
2022-12-06T10:48:48.171Z,4.97
2022-12-06T10:51:21.018Z,5.73
2022-12-06T10:53:53.886Z,4.80
2022-12-06T10:56:27.269Z,5.27
2022-12-06T10:59:01.011Z,4.70
2022-12-06T11:01:33.816Z,4.47
2022-12-06T11:04:05.956Z,5.57
2022-12-06T11:06:38.607Z,4.10
2022-12-06T11:09:17.360Z,4.20
2022-12-06T11:11:46.425Z,3.40
2022-12-06T11:14:24.723Z,3.33
2022-12-06T11:16:56.549Z,3.93
2022-12-06T11:19:31.365Z,4.43
2022-12-06T11:22:05.156Z,3.47
2022-12-06T11:24:43.237Z,3.57
2022-12-06T11:27:22.706Z,4.63
2022-12-06T11:29:53.408Z,3.23
2022-12-06T11:32:21.516Z,3.50
2022-12-06T11:34:52.368Z,3.53
2022-12-06T11:37:22.635Z,3.60
2022-12-06T11:39:53.001Z,3.13
2022-12-06T11:42:26.435Z,3.57
2022-12-06T11:45:01.908Z,2.93
2022-12-06T11:47:30.630Z,3.10
2022-12-06T11:50:04.196Z,6.23
2022-12-06T11:52:38.663Z,5.07
2022-12-06T11:55:16.393Z,2.60
2022-12-06T11:57:50.725Z,2.83
2022-12-06T12:00:22.309Z,2.70
2022-12-06T12:02:53.326Z,2.70
2022-12-06T12:05:23.669Z,2.43
2022-12-06T12:07:56.942Z,2.83
2022-12-06T12:10:35.513Z,3.53
2022-12-06T12:13:39.970Z,2.73
2022-12-06T12:16:17.431Z,4.53
2022-12-06T12:18:53.432Z,2.73
2022-12-06T12:21:33.428Z,2.43
2022-12-06T12:24:02.252Z,1.80
2022-12-06T12:26:42.179Z,2.70
2022-12-06T12:29:20.590Z,2.60
2022-12-06T12:31:54.469Z,2.60
2022-12-06T12:34:28.701Z,2.40
2022-12-06T12:36:58.754Z,2.20
2022-12-06T12:39:33.799Z,2.00
2022-12-06T12:42:02.861Z,2.50
2022-12-06T12:44:38.779Z,2.87
2022-12-06T12:47:19.543Z,2.80
2022-12-06T12:50:02.876Z,2.73
2022-12-06T12:52:33.270Z,2.73
2022-12-06T12:55:03.865Z,3.33
2022-12-06T12:57:31.989Z,2.33
2022-12-06T12:59:59.993Z,3.03
2022-12-06T13:02:32.039Z,2.90
2022-12-06T13:07:54.129Z,2.27
2022-12-06T13:10:28.045Z,2.53
2022-12-06T13:12:58.994Z,2.77
2022-12-06T13:15:33.532Z,2.63
2022-12-06T13:18:12.355Z,2.60
2022-12-06T13:20:42.073Z,2.53
2022-12-06T13:23:14.510Z,2.33
2022-12-06T13:25:44.526Z,2.27
2022-12-06T13:28:19.695Z,2.20
2022-12-06T13:30:50.228Z,3.70
2022-12-06T13:33:23.669Z,3.07
2022-12-06T13:35:58.297Z,2.00
2022-12-06T13:38:31.769Z,1.70
2022-12-06T13:41:00.731Z,2.60
2022-12-06T13:43:57.644Z,2.33
2022-12-06T13:46:33.852Z,2.07
2022-12-06T13:49:27.358Z,2.33
2022-12-06T13:51:55.566Z,3.87
2022-12-06T13:54:41.478Z,5.03
2022-12-06T13:57:31.048Z,4.57
2022-12-06T13:59:59.806Z,4.40
2022-12-06T14:02:51.818Z,33.37
2022-12-06T14:06:15.937Z,15.20
2022-12-06T14:08:47.334Z,5.63
2022-12-06T14:11:23.155Z,7.93
2022-12-06T14:14:02.548Z,6.17
2022-12-06T14:16:35.120Z,2.67
2022-12-06T14:19:13.387Z,2.53
2022-12-06T14:21:44.934Z,4.40
2022-12-06T14:24:35.775Z,2.37
2022-12-06T14:27:05.909Z,2.80
2022-12-06T14:29:34.332Z,5.70
2022-12-06T14:32:02.525Z,3.20
2022-12-06T14:34:32.610Z,3.50
2022-12-06T14:37:02.137Z,3.00
2022-12-06T14:39:32.884Z,3.00
2022-12-06T14:42:21.907Z,3.20
2022-12-06T14:44:53.319Z,2.53
2022-12-06T14:47:24.715Z,3.00
2022-12-06T14:50:12.138Z,2.90
2022-12-06T14:53:00.413Z,2.87
2022-12-06T14:55:30.708Z,4.33
2022-12-06T14:58:01.956Z,5.23
2022-12-06T15:00:36.797Z,4.73
2022-12-06T15:03:23.760Z,3.87
2022-12-06T15:06:10.126Z,3.83
2022-12-06T15:08:39.715Z,4.97
2022-12-06T15:11:42.803Z,4.47
2022-12-06T15:14:20.028Z,4.03
2022-12-06T15:16:58.971Z,6.07
2022-12-06T15:19:27.711Z,3.80
2022-12-06T15:21:55.711Z,3.60
2022-12-06T15:24:26.245Z,2.77
2022-12-06T15:26:54.733Z,3.27
2022-12-06T15:29:24.633Z,2.40
2022-12-06T15:31:55.716Z,2.60
2022-12-06T15:34:26.917Z,3.03
2022-12-06T15:37:15.117Z,2.50
2022-12-06T15:39:43.807Z,2.60
2022-12-06T15:42:19.339Z,1.97
2022-12-06T15:44:50.196Z,2.90
2022-12-06T15:47:19.421Z,2.47
2022-12-06T15:49:47.709Z,1.97
2022-12-06T15:52:18.973Z,2.13
2022-12-06T15:54:47.199Z,1.87
2022-12-06T15:57:15.446Z,4.20
2022-12-06T15:59:43.511Z,2.93
2022-12-06T16:02:16.417Z,1.87
2022-12-06T16:04:45.645Z,2.30
2022-12-06T16:07:18.469Z,3.37
2022-12-06T16:09:47.142Z,2.43
2022-12-06T16:12:15.175Z,2.37
2022-12-06T16:14:43.956Z,2.17
2022-12-06T16:17:12.321Z,2.50
2022-12-06T16:19:59.142Z,2.33
2022-12-06T16:22:41.082Z,1.90
2022-12-06T16:25:09.832Z,2.13
2022-12-06T16:27:37.821Z,1.80
2022-12-06T16:30:06.961Z,2.53
2022-12-06T16:32:35.235Z,2.20
2022-12-06T16:35:04.884Z,1.97
2022-12-06T16:37:33.277Z,2.03
2022-12-06T16:40:01.246Z,1.80
2022-12-06T16:42:29.254Z,1.57
2022-12-06T16:44:57.283Z,2.10
2022-12-06T16:49:52.075Z,2.87
2022-12-06T16:52:22.080Z,3.70
2022-12-06T16:54:50.087Z,2.50
2022-12-06T16:57:19.469Z,6.67
2022-12-06T16:59:47.637Z,2.90
2022-12-06T17:02:27.835Z,2.80
2022-12-06T17:04:57.093Z,2.67
2022-12-06T17:07:26.414Z,3.17
2022-12-06T17:09:54.946Z,2.20
2022-12-06T17:12:23.064Z,1.93
2022-12-06T17:14:51.254Z,2.53
2022-12-06T17:17:21.629Z,2.27
2022-12-06T17:19:50.821Z,2.47
2022-12-06T17:22:19.707Z,2.80
2022-12-06T17:24:49.070Z,3.00
2022-12-06T17:27:18.051Z,2.50
2022-12-06T17:29:46.099Z,3.20
2022-12-06T17:32:14.537Z,3.40
2022-12-06T17:34:42.624Z,3.43
2022-12-06T17:37:10.745Z,3.70
2022-12-06T17:39:38.751Z,4.83
2022-12-06T17:42:25.460Z,3.20
2022-12-06T17:44:53.695Z,3.50
2022-12-06T17:47:21.651Z,3.50
2022-12-06T17:49:49.709Z,3.20
2022-12-06T17:52:18.500Z,3.40
2022-12-06T17:54:46.455Z,3.43
2022-12-06T17:57:19.892Z,3.13
2022-12-06T17:59:49.254Z,3.17
2022-12-06T18:02:19.559Z,3.03
2022-12-06T18:04:48.727Z,3.07
2022-12-06T18:07:18.217Z,3.23
2022-12-06T18:09:46.694Z,3.30
2022-12-06T18:12:17.739Z,3.40
2022-12-06T18:14:46.314Z,3.93
2022-12-06T18:17:14.400Z,5.23
2022-12-06T18:19:43.743Z,4.23
2022-12-06T18:22:11.810Z,3.60
2022-12-06T18:24:39.795Z,4.13
2022-12-06T18:27:08.257Z,4.60
2022-12-06T18:29:37.908Z,4.13
2022-12-06T18:32:06.424Z,4.27
2022-12-06T18:34:34.507Z,3.77
2022-12-06T18:37:02.443Z,4.50
2022-12-06T18:39:30.472Z,4.40
2022-12-06T18:41:58.563Z,4.30
2022-12-06T18:44:26.820Z,3.90
2022-12-06T18:46:56.139Z,5.27
2022-12-06T18:49:26.384Z,5.10
2022-12-06T18:51:54.398Z,4.23
2022-12-06T18:54:22.630Z,4.40
2022-12-06T18:56:50.714Z,4.07
2022-12-06T18:59:23.128Z,4.50
2022-12-06T19:01:55.472Z,8.27
2022-12-06T19:04:23.814Z,4.83
2022-12-06T19:06:51.749Z,7.90
2022-12-06T19:09:20.471Z,5.17
2022-12-06T19:11:49.303Z,5.63
2022-12-06T19:14:17.554Z,5.17
2022-12-06T19:16:47.669Z,6.47
2022-12-06T19:19:20.060Z,5.20
2022-12-06T19:21:50.064Z,4.93
2022-12-06T19:24:21.471Z,4.43
2022-12-06T19:26:51.318Z,4.47
2022-12-06T19:29:19.712Z,4.30
2022-12-06T19:31:47.915Z,5.00
2022-12-06T19:34:19.458Z,4.10
2022-12-06T19:36:48.835Z,4.67
2022-12-06T19:39:17.901Z,4.80
2022-12-06T19:42:03.889Z,4.43
2022-12-06T19:44:32.201Z,5.87
2022-12-06T19:47:00.176Z,4.23
2022-12-06T19:49:30.090Z,4.80
2022-12-06T19:51:58.107Z,5.10
2022-12-06T19:54:27.888Z,5.17
2022-12-06T19:56:57.944Z,5.37
2022-12-06T19:59:28.192Z,5.00
2022-12-06T20:01:58.108Z,5.30
2022-12-06T20:04:29.653Z,7.73
2022-12-06T20:06:57.749Z,5.30
2022-12-06T20:09:27.906Z,5.10
2022-12-06T20:12:02.714Z,5.73
2022-12-06T20:14:34.464Z,5.17
2022-12-06T20:17:03.477Z,6.10
2022-12-06T20:19:33.754Z,5.77
2022-12-06T20:22:01.944Z,8.53
2022-12-06T20:24:30.164Z,6.90
2022-12-06T20:26:58.089Z,7.07
2022-12-06T20:29:29.849Z,6.27
2022-12-06T20:31:59.587Z,6.57
2022-12-06T20:34:29.570Z,8.80
2022-12-06T20:36:58.894Z,7.53
2022-12-06T20:39:29.161Z,6.07
2022-12-06T20:41:58.058Z,7.43
2022-12-06T20:44:26.335Z,7.90
2022-12-06T20:46:54.664Z,7.33
2022-12-06T20:49:22.781Z,9.03
2022-12-06T20:51:53.375Z,8.23
2022-12-06T20:54:23.647Z,9.00
2022-12-06T20:56:53.376Z,7.43
2022-12-06T20:59:22.029Z,6.83
2022-12-06T21:01:50.364Z,7.50
2022-12-06T21:04:18.812Z,10.03
2022-12-06T21:06:46.807Z,9.37
2022-12-06T21:09:14.879Z,7.47
2022-12-06T21:11:44.201Z,7.77
2022-12-06T21:14:13.998Z,7.40
2022-12-06T21:16:43.850Z,7.70
2022-12-06T21:19:15.663Z,12.07
2022-12-06T21:21:47.267Z,7.57
2022-12-06T21:24:17.369Z,8.57
2022-12-06T21:26:46.900Z,8.73
2022-12-06T21:29:17.324Z,8.07
2022-12-06T21:31:45.806Z,8.80
2022-12-06T21:34:15.144Z,10.97
2022-12-06T21:36:43.552Z,9.67
2022-12-06T21:39:12.519Z,8.90
2022-12-06T21:41:41.062Z,9.23
2022-12-06T21:44:10.512Z,8.90
2022-12-06T21:46:38.678Z,8.93
2022-12-06T21:49:06.793Z,9.77
2022-12-06T21:51:34.890Z,8.97
2022-12-06T21:54:03.260Z,10.27
2022-12-06T21:56:33.995Z,9.80
2022-12-06T21:59:02.223Z,13.60
2022-12-06T22:01:32.570Z,9.10
2022-12-06T22:04:03.151Z,14.27
2022-12-06T22:06:32.100Z,10.67
2022-12-06T22:09:02.050Z,11.77
2022-12-06T22:11:31.239Z,13.73
2022-12-06T22:14:00.392Z,9.30
2022-12-06T22:16:29.090Z,8.27
2022-12-06T22:18:59.245Z,11.10
2022-12-06T22:21:30.020Z,10.00
2022-12-06T22:23:58.689Z,10.53
2022-12-06T22:26:29.204Z,9.90
2022-12-06T22:28:58.205Z,8.40
2022-12-06T22:31:27.949Z,8.63
2022-12-06T22:33:57.297Z,8.90
2022-12-06T22:36:27.415Z,8.90
2022-12-06T22:38:59.008Z,8.77
2022-12-06T22:41:28.017Z,8.50
2022-12-06T22:43:57.841Z,8.03
2022-12-06T22:46:27.638Z,8.17
2022-12-06T22:48:56.304Z,8.13
2022-12-06T22:51:27.852Z,8.53
2022-12-06T22:53:57.976Z,9.63
2022-12-06T22:56:26.963Z,9.07
2022-12-06T22:58:56.231Z,8.17
2022-12-06T23:01:26.732Z,9.07
2022-12-06T23:03:55.772Z,10.33
2022-12-06T23:06:26.746Z,10.27
2022-12-06T23:08:55.290Z,9.20
2022-12-06T23:11:25.312Z,10.30
2022-12-06T23:13:53.700Z,8.80
2022-12-06T23:16:24.080Z,8.27
2022-12-06T23:18:52.531Z,8.97
2022-12-06T23:21:22.992Z,8.67
2022-12-06T23:23:54.765Z,8.67
2022-12-06T23:26:25.213Z,8.67
2022-12-06T23:28:53.836Z,8.73
2022-12-06T23:31:24.052Z,8.73
2022-12-06T23:33:54.092Z,8.50
2022-12-06T23:36:25.306Z,8.90
2022-12-06T23:38:54.898Z,8.80
2022-12-06T23:41:24.647Z,7.93
2022-12-06T23:43:53.865Z,9.27
2022-12-06T23:46:24.806Z,8.40
2022-12-06T23:48:54.014Z,8.03
2022-12-06T23:51:23.383Z,6.60
2022-12-06T23:53:52.668Z,8.40
2022-12-06T23:56:22.954Z,7.67
2022-12-06T23:58:52.477Z,7.00
